Little Canada, Minnesota
Current Conditions -  °F | °C
As of 7:53 AM on Tuesday 27 Jan 2015 (Local Time) from KSTP Reporting Station
Overcast Overcast  
Wind Chill: 27°   Ceiling: 2000
Heat Index: 32°   Visibility: 10mi
Dew Point: 25°   Wind: 5mph
Humidity: 75%   Direction: 90°E
Pressure: 30.15"   Gusts: NA
Location:  44.9981°N, 93.0983°W
Report Text: KSTP 271353Z 09004KT 10SM OVC020 00/M04 A3015 RMK AO2 SLP214 T00001039
Loading
Personal Weather Stations






























Interactive Weather Map New forecast layout! Learn more

10-Day Weather Forecast

Advertisements
Track Severe Weather on mobile